Time;durP1;ratioP1;P1;durP2;ratioP2;P2;SDS_P1;SDS_P2;PMS_P1;PMS_P2;Temp;Humidity;BMP_temperature;BMP_pressure;BME280_temperature;BME280_humidity;BME280_pressure;Samples;Min_cycle;Max_cycle;Signal;HPM_P1;HPM_P2
2022/01/10 00:01:12;;;;;;;23.23;19.87;;;;;;;1.81;82.15;100815.94;4994899;28;20469;-44
2022/01/10 00:03:42;;;;;;;22.40;17.37;;;;;;;1.84;82.06;100813.03;4995718;28;20469;-46
2022/01/10 00:06:10;;;;;;;18.27;16.33;;;;;;;1.80;82.80;100809.84;4995745;28;20549;-46
2022/01/10 00:08:40;;;;;;;19.60;17.60;;;;;;;1.82;82.96;100821.06;4995568;28;20568;-44
2022/01/10 00:11:07;;;;;;;21.20;17.50;;;;;;;1.81;82.66;100822.03;4994676;28;20489;-44
2022/01/10 00:13:35;;;;;;;21.97;17.70;;;;;;;1.83;82.58;100827.97;4995499;28;20438;-45
2022/01/10 00:16:03;;;;;;;21.03;18.80;;;;;;;1.81;83.51;100835.16;4995237;28;20471;-45
2022/01/10 00:18:30;;;;;;;20.63;18.23;;;;;;;1.84;83.42;100847.22;4995471;28;20791;-44
2022/01/10 00:20:59;;;;;;;20.50;18.30;;;;;;;1.86;83.53;100842.63;4994734;28;20529;-44
2022/01/10 00:23:28;;;;;;;22.10;18.50;;;;;;;1.87;83.72;100844.31;4995351;28;20434;-44
2022/01/10 00:25:56;;;;;;;21.63;18.90;;;;;;;1.87;84.04;100852.19;4995352;28;20445;-44
2022/01/10 00:28:23;;;;;;;23.43;19.23;;;;;;;1.90;83.82;100851.91;4995107;28;20561;-46
2022/01/10 00:30:51;;;;;;;20.67;18.07;;;;;;;1.90;84.43;100859.81;4993358;28;20430;-44
2022/01/10 00:33:19;;;;;;;21.33;18.37;;;;;;;1.95;83.45;100865.47;4995035;28;20434;-44
2022/01/10 00:35:47;;;;;;;21.33;18.40;;;;;;;1.98;83.53;100865.19;4995139;28;21060;-43
2022/01/10 00:38:16;;;;;;;21.30;18.43;;;;;;;2.02;83.44;100875.31;4995023;28;20529;-45
2022/01/10 00:40:44;;;;;;;20.47;18.30;;;;;;;2.04;84.51;100883.06;4994399;28;20521;-43
2022/01/10 00:43:18;;;;;;;20.03;17.70;;;;;;;2.01;85.50;100881.53;5000433;28;20858;-45
2022/01/10 00:45:46;;;;;;;21.37;18.53;;;;;;;2.04;85.43;100893.56;5007768;28;20501;-43
2022/01/10 00:48:14;;;;;;;22.23;18.77;;;;;;;2.05;85.88;100897.88;4994896;28;20478;-44
2022/01/10 00:50:41;;;;;;;21.37;19.10;;;;;;;2.07;85.63;100895.94;4994098;28;20438;-46
2022/01/10 00:53:09;;;;;;;20.90;17.00;;;;;;;2.07;86.25;100899.41;4994764;28;20529;-46
2022/01/10 00:55:38;;;;;;;20.93;18.73;;;;;;;2.11;85.84;100907.84;4994505;28;21035;-48
2022/01/10 00:58:06;;;;;;;20.33;18.30;;;;;;;2.03;87.34;100910.34;4994627;28;20965;-44
2022/01/10 01:00:34;;;;;;;19.80;17.80;;;;;;;2.05;86.92;100918.91;4994758;28;20430;-44
2022/01/10 01:03:03;;;;;;;20.10;17.30;;;;;;;2.03;87.20;100916.41;4994148;28;20478;-44
2022/01/10 01:05:34;;;;;;;21.23;18.70;;;;;;;2.05;86.96;100918.91;4994389;28;20501;-46
2022/01/10 01:08:06;;;;;;;18.97;17.00;;;;;;;2.02;86.76;100929.72;4994438;28;20441;-44
2022/01/10 01:13:36;;;;;;;19.10;17.27;;;;;;;1.95;87.53;100941.75;4994285;28;20438;-44
2022/01/10 01:16:15;;;;;;;20.10;17.27;;;;;;;1.95;87.16;100953.09;5019576;23;20482;-47
2022/01/10 01:24:15;;;;;;;20.10;18.00;;;;;;;2.02;84.75;100974.44;5013844;28;20516;-51
2022/01/10 01:26:44;;;;;;;20.07;18.13;;;;;;;2.02;85.32;100974.44;5013695;28;20551;-46
2022/01/10 01:29:17;;;;;;;20.70;18.50;;;;;;;2.03;84.39;100978.72;5013587;28;20479;-48
2022/01/10 01:31:45;;;;;;;21.23;18.80;;;;;;;1.99;85.44;100993.13;5021752;28;20470;-48
2022/01/10 01:34:16;;;;;;;22.47;20.10;;;;;;;2.01;84.17;101005.16;5033219;28;20439;-46
2022/01/10 01:36:48;;;;;;;25.20;19.60;;;;;;;1.92;84.01;101013.84;5033259;28;20455;-47
2022/01/10 01:39:20;;;;;;;23.20;19.77;;;;;;;1.93;82.03;101004.16;5033283;28;20519;-44
2022/01/10 01:41:49;;;;;;;23.43;21.00;;;;;;;1.98;80.77;101023.00;5022991;28;20550;-46
2022/01/10 01:44:18;;;;;;;22.63;19.80;;;;;;;2.02;80.77;101024.41;4999012;28;20435;-48
2022/01/10 01:46:45;;;;;;;22.87;20.40;;;;;;;2.01;82.05;101020.09;4993528;28;20458;-46
2022/01/10 01:49:14;;;;;;;24.27;21.73;;;;;;;2.02;81.94;101025.25;4993641;28;20488;-48
2022/01/10 01:51:42;;;;;;;23.37;20.83;;;;;;;2.01;82.81;101034.09;4993125;28;20468;-45
2022/01/10 01:54:10;;;;;;;27.50;20.17;;;;;;;1.93;83.40;101041.81;4993619;28;20438;-48
2022/01/10 01:56:38;;;;;;;21.90;19.30;;;;;;;1.96;82.03;101044.19;4993322;28;20462;-44
2022/01/10 01:59:07;;;;;;;22.90;19.87;;;;;;;1.96;82.46;101048.63;4993391;28;20955;-48
2022/01/10 02:01:36;;;;;;;22.33;20.03;;;;;;;2.01;81.31;101047.25;4992903;28;20466;-48
2022/01/10 02:04:05;;;;;;;23.03;19.47;;;;;;;2.01;82.84;101059.56;4993557;28;20438;-45
2022/01/10 02:06:32;;;;;;;23.23;20.70;;;;;;;2.01;83.32;101062.19;4993404;28;20491;-44
2022/01/10 02:09:00;;;;;;;22.27;19.87;;;;;;;2.05;82.09;101074.94;4993044;28;20484;-45
2022/01/10 02:11:28;;;;;;;24.03;20.17;;;;;;;2.05;82.85;101072.31;4992691;28;20462;-45
2022/01/10 02:13:56;;;;;;;24.13;20.50;;;;;;;2.04;83.90;101082.97;4993474;28;20434;-48
2022/01/10 02:16:33;;;;;;;23.87;21.23;;;;;;;2.05;83.87;101084.63;4993035;28;20566;-46
2022/01/10 02:19:02;;;;;;;23.00;20.40;;;;;;;2.05;83.87;101090.72;4993159;28;20484;-44
2022/01/10 02:21:31;;;;;;;23.80;19.53;;;;;;;2.06;83.86;101096.84;4992372;28;20839;-49
2022/01/10 02:23:59;;;;;;;24.50;21.90;;;;;;;2.08;83.73;101094.88;4993225;28;20529;-44
2022/01/10 02:26:26;;;;;;;21.93;19.63;;;;;;;2.08;84.25;101110.69;4993042;28;20977;-46
2022/01/10 02:28:54;;;;;;;22.07;19.83;;;;;;;2.01;84.27;101120.06;4992975;28;20434;-46
2022/01/10 02:31:22;;;;;;;20.73;18.63;;;;;;;2.06;84.27;101126.56;4992202;28;20466;-47
2022/01/10 02:33:51;;;;;;;20.70;18.60;;;;;;;2.09;83.50;101128.13;4992775;28;20426;-48
2022/01/10 02:36:24;;;;;;;22.77;20.47;;;;;;;2.12;82.91;101123.41;4992926;28;20469;-49
2022/01/10 02:38:54;;;;;;;22.90;20.57;;;;;;;2.12;83.46;101123.41;4993077;28;20525;-46
2022/01/10 02:41:25;;;;;;;22.07;19.70;;;;;;;2.15;83.51;101136.31;4992468;28;20454;-48
2022/01/10 02:43:54;;;;;;;23.80;21.37;;;;;;;2.16;83.46;101147.66;4992702;28;20430;-48
2022/01/10 02:46:22;;;;;;;24.27;19.87;;;;;;;2.15;83.36;101154.72;4992437;28;20458;-45
2022/01/10 02:48:50;;;;;;;25.80;21.77;;;;;;;2.20;83.22;101162.22;4992609;28;20493;-44
2022/01/10 02:51:17;;;;;;;22.57;19.73;;;;;;;2.20;83.36;101160.44;4992004;28;20866;-48
2022/01/10 02:53:45;;;;;;;23.93;21.47;;;;;;;2.22;82.76;101168.19;4991982;28;20560;-46
2022/01/10 02:56:14;;;;;;;23.20;20.80;;;;;;;2.25;82.64;101175.81;4992524;28;20541;-45
2022/01/10 02:58:42;;;;;;;22.40;19.87;;;;;;;2.28;82.47;101188.72;4992527;28;20464;-49
2022/01/10 03:01:10;;;;;;;23.33;20.90;;;;;;;2.27;83.50;101188.84;4991624;28;20464;-45
2022/01/10 03:03:38;;;;;;;22.13;18.57;;;;;;;2.28;83.65;101206.28;4992487;28;20430;-47
2022/01/10 03:06:06;;;;;;;22.43;20.20;;;;;;;2.28;83.32;101209.75;4992207;28;21015;-45
2022/01/10 03:08:34;;;;;;;22.80;20.50;;;;;;;2.30;82.88;101215.72;4992529;28;20440;-45
2022/01/10 03:11:01;;;;;;;24.30;20.83;;;;;;;2.36;81.67;101214.38;4991709;28;20462;-44
2022/01/10 03:13:30;;;;;;;25.17;22.30;;;;;;;2.39;81.82;101222.81;4992330;28;20434;-51
2022/01/10 03:15:58;;;;;;;24.53;20.90;;;;;;;2.41;82.58;101214.81;4992006;28;20466;-46
2022/01/10 03:18:26;;;;;;;32.07;23.67;;;;;;;2.41;83.06;101217.44;4992328;28;20470;-46
2022/01/10 03:20:53;;;;;;;24.13;20.73;;;;;;;2.44;82.75;101223.28;4991617;28;20430;-49
2022/01/10 03:23:21;;;;;;;23.90;20.50;;;;;;;2.43;83.94;101226.88;4992301;28;20434;-47
2022/01/10 03:25:48;;;;;;;26.10;21.70;;;;;;;2.41;84.23;101235.88;4992145;28;20450;-43
2022/01/10 03:28:16;;;;;;;26.53;20.77;;;;;;;2.41;83.94;101239.34;4992133;28;20481;-46
2022/01/10 03:30:45;;;;;;;23.23;20.73;;;;;;;2.45;83.10;101256.50;4991422;28;20999;-46
2022/01/10 03:33:13;;;;;;;24.03;21.53;;;;;;;2.47;83.12;101253.75;4992232;28;20434;-46
2022/01/10 03:35:40;;;;;;;25.27;21.57;;;;;;;2.45;83.76;101248.63;4992125;28;20464;-46
2022/01/10 03:38:08;;;;;;;29.90;21.93;;;;;;;2.46;83.57;101258.19;4992202;28;20526;-49
2022/01/10 03:40:35;;;;;;;24.37;21.87;;;;;;;2.49;83.15;101268.47;4991818;28;20537;-49
2022/01/10 03:43:04;;;;;;;31.10;23.40;;;;;;;2.51;82.42;101277.03;4991792;28;20992;-47
2022/01/10 03:45:32;;;;;;;25.60;20.37;;;;;;;2.51;83.24;101276.25;4991946;28;20440;-46
2022/01/10 03:48:01;;;;;;;39.60;23.70;;;;;;;2.53;83.16;101271.66;4992024;28;20439;-45
2022/01/10 03:50:29;;;;;;;26.07;21.90;;;;;;;2.53;83.36;101277.78;4991805;28;20481;-47
2022/01/10 03:52:57;;;;;;;27.33;23.00;;;;;;;2.53;83.30;101290.94;4991521;28;20552;-49
2022/01/10 03:55:25;;;;;;;27.90;24.53;;;;;;;2.54;83.68;101289.13;4992055;28;20434;-46
2022/01/10 03:57:52;;;;;;;34.10;23.67;;;;;;;2.56;83.14;101292.47;4992168;28;21048;-46
2022/01/10 04:00:20;;;;;;;29.37;22.97;;;;;;;2.54;84.01;101297.03;4992154;28;20456;-43
2022/01/10 04:02:54;;;;;;;32.83;24.60;;;;;;;2.55;84.09;101307.41;4991475;28;20609;-45
2022/01/10 04:05:23;;;;;;;26.07;22.90;;;;;;;2.57;83.74;101315.22;4992801;28;20430;-45
2022/01/10 04:07:51;;;;;;;25.70;22.90;;;;;;;2.57;83.67;101313.38;4995535;28;20441;-45
2022/01/10 04:10:19;;;;;;;28.60;23.40;;;;;;;2.60;82.76;101314.91;4995692;28;20473;-43
2022/01/10 04:12:46;;;;;;;30.53;23.97;;;;;;;2.61;82.89;101320.06;4995134;28;20461;-47
2022/01/10 04:15:15;;;;;;;29.40;23.43;;;;;;;2.65;82.39;101325.91;4995647;28;20438;-46
2022/01/10 04:17:43;;;;;;;30.83;22.87;;;;;;;2.66;82.46;101331.03;4995265;28;20468;-44
2022/01/10 04:20:11;;;;;;;30.10;24.13;;;;;;;2.68;82.65;101326.47;4995210;28;20525;-48
2022/01/10 04:22:41;;;;;;;29.87;25.00;;;;;;;2.67;83.30;101339.75;4994582;28;20479;-49
2022/01/10 04:25:09;;;;;;;30.30;23.93;;;;;;;2.70;82.96;101347.41;4995414;28;20806;-46
2022/01/10 04:27:36;;;;;;;27.53;24.53;;;;;;;2.72;82.41;101345.47;4995241;28;20458;-47
2022/01/10 04:30:05;;;;;;;33.67;26.07;;;;;;;2.74;81.67;101357.56;4994555;28;20438;-47
2022/01/10 04:32:33;;;;;;;33.20;28.17;;;;;;;2.80;81.19;101350.94;4994212;28;20466;-44
2022/01/10 04:35:01;;;;;;;34.33;27.60;;;;;;;2.82;81.80;101363.94;4995141;28;20985;-47
2022/01/10 04:37:28;;;;;;;31.90;25.60;;;;;;;2.83;81.74;101365.63;4995076;28;20545;-46
2022/01/10 04:39:58;;;;;;;32.57;28.77;;;;;;;2.84;82.79;101372.56;4995025;28;20436;-48
2022/01/10 04:42:25;;;;;;;35.07;28.23;;;;;;;2.85;82.71;101375.06;4994201;28;21055;-51
2022/01/10 04:44:53;;;;;;;37.70;30.83;;;;;;;2.88;81.43;101380.06;4994673;28;20517;-48
2022/01/10 04:47:21;;;;;;;32.10;27.40;;;;;;;2.92;81.48;101389.38;4994529;28;20973;-45
2022/01/10 04:50:08;;;;;;;35.33;27.67;;;;;;;2.92;82.30;101396.44;4994927;28;20517;-45
2022/01/10 04:52:35;;;;;;;32.27;26.67;;;;;;;2.90;82.28;101407.09;4994251;28;20561;-44
2022/01/10 04:55:06;;;;;;;36.07;29.70;;;;;;;2.88;82.71;101416.09;4994694;28;20440;-48
2022/01/10 04:57:33;;;;;;;36.27;28.90;;;;;;;2.85;82.49;101432.19;4994518;28;20468;-48
2022/01/10 05:00:01;;;;;;;33.13;29.30;;;;;;;2.85;81.28;101430.38;4994555;28;20444;-48
2022/01/10 05:02:28;;;;;;;36.33;26.27;;;;;;;2.77;80.47;101430.19;4993918;28;20553;-46
2022/01/10 05:04:56;;;;;;;31.63;26.10;;;;;;;2.73;79.51;101434.06;4994711;28;20452;-46
2022/01/10 05:07:24;;;;;;;37.13;27.97;;;;;;;2.74;78.74;101436.56;4994503;28;20577;-48
2022/01/10 05:09:52;;;;;;;33.57;26.70;;;;;;;2.72;78.11;101448.16;4994516;28;20434;-44
2022/01/10 05:12:23;;;;;;;33.90;26.10;;;;;;;2.68;76.58;101442.34;4993500;28;20470;-47
2022/01/10 05:14:50;;;;;;;36.87;27.70;;;;;;;2.72;74.38;101446.38;4994584;28;20434;-50
2022/01/10 05:17:19;;;;;;;40.80;28.87;;;;;;;2.76;74.54;101450.44;4993563;28;20465;-45
2022/01/10 05:19:47;;;;;;;32.70;27.23;;;;;;;2.76;75.09;101465.41;4994230;28;20441;-44
2022/01/10 05:22:15;;;;;;;37.97;27.17;;;;;;;2.77;75.53;101465.28;4993592;28;20466;-47
2022/01/10 05:24:42;;;;;;;40.50;30.00;;;;;;;2.81;74.95;101467.66;4994145;28;20473;-52
2022/01/10 05:27:10;;;;;;;43.00;31.30;;;;;;;2.83;75.09;101481.53;4993923;28;20552;-48
2022/01/10 05:29:39;;;;;;;37.43;28.93;;;;;;;2.85;75.50;101487.50;4994079;28;20438;-49
2022/01/10 05:32:08;;;;;;;44.90;31.67;;;;;;;2.82;76.56;101498.28;4993151;28;20570;-49
2022/01/10 05:34:35;;;;;;;37.60;28.80;;;;;;;2.86;76.51;101497.06;4994060;28;20434;-46
2022/01/10 05:37:03;;;;;;;38.00;29.67;;;;;;;2.84;77.61;101504.28;4993873;28;20618;-47
2022/01/10 05:39:31;;;;;;;38.10;29.67;;;;;;;2.84;78.00;101509.56;4993694;28;20441;-49
2022/01/10 05:41:59;;;;;;;42.43;30.53;;;;;;;2.85;77.29;101517.31;4993356;28;20462;-49
2022/01/10 05:44:27;;;;;;;39.50;29.20;;;;;;;2.84;78.38;101520.09;4993806;28;20855;-48
2022/01/10 05:46:58;;;;;;;49.10;31.70;;;;;;;2.87;78.54;101527.72;4993635;28;20454;-45
2022/01/10 05:49:32;;;;;;;50.60;31.43;;;;;;;2.84;78.86;101536.69;4993678;28;20480;-45
2022/01/10 05:52:00;;;;;;;42.73;31.27;;;;;;;2.84;79.24;101538.53;4992847;28;20477;-46
2022/01/10 05:54:28;;;;;;;43.47;31.20;;;;;;;2.85;79.15;101548.06;4993747;28;20430;-46
2022/01/10 05:56:55;;;;;;;45.07;30.73;;;;;;;2.84;79.83;101556.97;4993613;28;20823;-47
2022/01/10 05:59:23;;;;;;;43.10;31.53;;;;;;;2.86;79.77;101565.56;4993589;28;20434;-46
2022/01/10 06:01:50;;;;;;;39.50;31.63;;;;;;;2.82;80.44;101575.50;4992534;28;20458;-46
2022/01/10 06:04:20;;;;;;;41.90;32.07;;;;;;;2.76;80.50;101582.13;4993473;28;20438;-46
2022/01/10 06:06:48;;;;;;;43.57;33.43;;;;;;;2.78;79.41;101590.72;4991785;28;20465;-46
2022/01/10 06:09:15;;;;;;;46.80;34.00;;;;;;;2.80;78.92;101598.53;4993355;28;20444;-45
2022/01/10 06:11:43;;;;;;;43.50;33.50;;;;;;;2.81;78.82;101600.16;4992632;28;20919;-47
2022/01/10 06:14:11;;;;;;;43.90;30.67;;;;;;;2.86;78.08;101599.81;4993084;28;20440;-45
2022/01/10 06:16:39;;;;;;;42.97;33.37;;;;;;;2.87;78.71;101609.41;4992846;28;20466;-46
2022/01/10 06:19:06;;;;;;;45.33;32.43;;;;;;;2.88;79.55;101617.16;4993029;28;20448;-49
2022/01/10 06:21:35;;;;;;;46.23;33.70;;;;;;;2.86;80.13;101627.00;4992504;28;20993;-49
2022/01/10 06:24:03;;;;;;;50.60;36.50;;;;;;;2.86;81.38;101632.25;4993417;28;20435;-45
2022/01/10 06:26:31;;;;;;;50.07;35.07;;;;;;;2.86;80.97;101639.31;4993148;28;20473;-47
2022/01/10 06:28:58;;;;;;;48.40;33.90;;;;;;;2.86;81.24;101648.06;4992153;28;20844;-49
2022/01/10 06:31:26;;;;;;;49.07;35.70;;;;;;;2.82;81.77;101644.00;4992124;28;20485;-49
2022/01/10 06:33:54;;;;;;;55.50;36.43;;;;;;;2.83;81.24;101660.66;4993118;28;20434;-46
2022/01/10 06:36:21;;;;;;;43.23;34.03;;;;;;;2.77;81.84;101660.19;4992711;28;20472;-47
2022/01/10 06:38:50;;;;;;;51.30;35.70;;;;;;;2.78;81.35;101671.53;4992979;28;20992;-45
2022/01/10 06:41:18;;;;;;;49.70;33.40;;;;;;;2.82;81.37;101677.41;4992131;28;20477;-50
2022/01/10 06:43:46;;;;;;;45.57;34.37;;;;;;;2.76;82.32;101678.72;4992618;28;20525;-47
2022/01/10 06:46:13;;;;;;;51.03;36.60;;;;;;;2.79;81.03;101686.38;4992741;28;20461;-48
2022/01/10 06:48:41;;;;;;;48.10;33.80;;;;;;;2.82;81.42;101693.19;4992854;28;20530;-47
2022/01/10 06:51:11;;;;;;;45.83;34.80;;;;;;;2.72;82.55;101695.72;4992066;28;20474;-46
2022/01/10 06:53:39;;;;;;;45.50;34.00;;;;;;;2.80;80.29;101714.41;4992578;28;20940;-49
2022/01/10 06:56:08;;;;;;;50.70;37.33;;;;;;;2.81;80.54;101705.53;4992792;28;20464;-52
2022/01/10 06:58:35;;;;;;;47.50;38.00;;;;;;;2.83;81.46;101710.69;4992352;28;20437;-48
2022/01/10 07:01:04;;;;;;;47.20;35.60;;;;;;;2.82;82.28;101716.91;4991836;28;20462;-46
2022/01/10 07:03:32;;;;;;;52.93;37.20;;;;;;;2.83;82.44;101727.34;4992586;28;20426;-44
2022/01/10 07:05:59;;;;;;;47.50;36.27;;;;;;;2.81;83.27;101731.06;4992520;28;20534;-49
2022/01/10 07:08:27;;;;;;;48.00;35.93;;;;;;;2.76;83.69;101740.16;4992797;28;20929;-50
2022/01/10 07:10:55;;;;;;;55.20;37.93;;;;;;;2.77;83.22;101751.53;4991765;28;20434;-47
2022/01/10 07:13:24;;;;;;;56.83;38.60;;;;;;;2.80;82.73;101753.94;4992125;28;20474;-50
2022/01/10 07:15:52;;;;;;;54.40;37.63;;;;;;;2.80;82.91;101769.72;4992324;28;20552;-49
2022/01/10 07:18:20;;;;;;;51.57;37.90;;;;;;;2.80;83.40;101769.72;4992910;28;20803;-47
2022/01/10 07:20:47;;;;;;;55.27;37.73;;;;;;;2.83;83.08;101779.19;4991756;28;20521;-47
2022/01/10 07:23:15;;;;;;;54.73;38.30;;;;;;;2.71;83.40;101788.91;4992213;28;20440;-48
2022/01/10 07:25:43;;;;;;;51.37;38.90;;;;;;;2.76;82.82;101794.63;4991991;28;20973;-47
2022/01/10 07:28:10;;;;;;;58.53;39.27;;;;;;;2.72;82.59;101796.66;4992386;28;20430;-45
2022/01/10 07:30:39;;;;;;;56.30;40.27;;;;;;;2.76;81.31;101803.38;4992270;28;20429;-46
2022/01/10 07:33:07;;;;;;;54.90;38.37;;;;;;;2.79;81.51;101810.19;5011473;28;20473;-46
2022/01/10 07:35:35;;;;;;;56.90;41.03;;;;;;;2.84;81.84;101817.75;5011743;28;20436;-47
2022/01/10 07:38:03;;;;;;;60.23;41.50;;;;;;;2.82;82.11;101812.59;5011686;28;20440;-48
2022/01/10 07:40:30;;;;;;;64.60;41.03;;;;;;;2.86;82.00;101826.34;5012613;28;20459;-48
2022/01/10 07:42:58;;;;;;;69.37;43.10;;;;;;;2.86;82.42;101818.47;4996371;28;20480;-51
2022/01/10 07:45:26;;;;;;;64.00;42.40;;;;;;;2.90;81.75;101823.34;4995917;28;20434;-49
2022/01/10 07:47:55;;;;;;;59.77;41.50;;;;;;;2.95;81.58;101829.13;4995977;28;20537;-45
2022/01/10 07:50:26;;;;;;;60.50;42.27;;;;;;;2.99;82.57;101827.88;4995863;28;20525;-48
2022/01/10 07:52:54;;;;;;;56.97;42.50;;;;;;;2.99;83.32;101835.78;4995381;28;20564;-47
2022/01/10 07:55:21;;;;;;;56.47;39.90;;;;;;;3.05;83.95;101834.47;4995888;28;20437;-46
2022/01/10 07:57:49;;;;;;;59.57;41.03;;;;;;;3.07;84.77;101840.47;4995613;28;20448;-47
2022/01/10 08:00:16;;;;;;;58.97;39.37;;;;;;;3.11;84.31;101852.44;4995793;28;20433;-49
2022/01/10 08:02:44;;;;;;;63.03;43.43;;;;;;;3.17;83.88;101849.31;4995070;28;20465;-50
2022/01/10 08:05:13;;;;;;;54.67;39.20;;;;;;;3.20;84.70;101856.97;4995514;28;20865;-47
2022/01/10 08:07:41;;;;;;;57.37;41.50;;;;;;;3.22;85.29;101858.56;4995640;28;20458;-49
2022/01/10 08:10:10;;;;;;;56.13;38.07;;;;;;;3.26;85.67;101864.41;4995393;28;20955;-45
2022/01/10 08:12:37;;;;;;;59.23;41.33;;;;;;;3.26;86.75;101869.66;4994843;28;20815;-48
2022/01/10 08:15:06;;;;;;;55.40;39.80;;;;;;;3.13;88.49;101874.25;4995422;28;20427;-45
2022/01/10 08:17:34;;;;;;;63.33;42.53;;;;;;;3.14;88.31;101889.09;4995204;28;20573;-48
2022/01/10 08:20:01;;;;;;;56.90;40.87;;;;;;;3.13;88.07;101897.97;4995465;28;20442;-48
2022/01/10 08:22:30;;;;;;;64.70;42.87;;;;;;;3.10;88.22;101908.75;4994676;28;20462;-47
2022/01/10 08:24:58;;;;;;;66.13;45.17;;;;;;;3.10;87.83;101911.41;4995422;28;20426;-50
2022/01/10 08:27:25;;;;;;;63.10;44.07;;;;;;;3.08;87.31;101908.88;4995030;28;20453;-46
2022/01/10 08:29:53;;;;;;;60.00;43.77;;;;;;;3.07;87.66;101919.53;4995130;28;20521;-45
2022/01/10 08:32:21;;;;;;;60.57;40.10;;;;;;;3.06;87.58;101933.66;4994401;28;20470;-51
2022/01/10 08:34:48;;;;;;;61.73;43.10;;;;;;;3.07;87.49;101924.81;4995216;28;20534;-45
2022/01/10 08:37:16;;;;;;;61.60;43.40;;;;;;;3.08;86.92;101931.72;4995092;28;20461;-49
2022/01/10 08:39:49;;;;;;;65.73;41.70;;;;;;;3.07;87.48;101932.72;4995085;28;20434;-47
2022/01/10 08:42:17;;;;;;;67.97;45.07;;;;;;;3.06;87.50;101937.13;4994177;28;20454;-46
2022/01/10 08:44:45;;;;;;;63.50;42.47;;;;;;;3.06;87.25;101933.66;4994549;28;20456;-47
2022/01/10 08:47:18;;;;;;;63.43;41.43;;;;;;;3.06;87.23;101939.78;4995019;28;20472;-48
2022/01/10 08:49:46;;;;;;;61.70;44.50;;;;;;;3.03;87.19;101950.56;4994999;28;20517;-48
2022/01/10 08:52:15;;;;;;;61.17;42.20;;;;;;;3.08;87.12;101960.72;4993088;28;20469;-48
2022/01/10 08:54:43;;;;;;;58.70;43.60;;;;;;;3.08;86.56;101958.09;4994815;28;20438;-47
2022/01/10 08:57:12;;;;;;;60.13;43.90;;;;;;;3.10;86.87;101967.59;4994414;28;20454;-45
2022/01/10 08:59:39;;;;;;;66.40;43.53;;;;;;;3.10;87.30;101972.84;4994531;28;20438;-46
2022/01/10 09:02:08;;;;;;;66.93;44.60;;;;;;;3.12;87.11;101978.00;4993972;28;20557;-46
2022/01/10 09:04:36;;;;;;;61.60;41.67;;;;;;;3.14;87.44;101973.44;4994746;28;20442;-48
2022/01/10 09:07:05;;;;;;;67.20;44.50;;;;;;;3.20;87.01;101975.59;4994694;28;20553;-47
2022/01/10 09:09:33;;;;;;;60.33;42.90;;;;;;;3.21;87.43;102001.84;4994423;28;20518;-46
2022/01/10 09:12:01;;;;;;;65.30;45.50;;;;;;;3.25;87.70;101999.81;4993755;28;20467;-47
2022/01/10 09:14:30;;;;;;;63.13;42.67;;;;;;;3.28;88.50;102013.59;4994652;28;20505;-48
2022/01/10 09:16:57;;;;;;;65.93;44.63;;;;;;;3.32;88.52;102011.56;4994024;28;20506;-44
2022/01/10 09:19:25;;;;;;;63.90;42.77;;;;;;;3.34;89.27;102021.00;4994222;28;20437;-47
2022/01/10 09:21:52;;;;;;;63.27;43.77;;;;;;;3.34;89.79;102021.00;4993553;28;20454;-44
2022/01/10 09:24:20;;;;;;;66.80;43.93;;;;;;;3.41;89.73;102026.66;4994098;28;20430;-46
2022/01/10 09:26:48;;;;;;;60.20;42.20;;;;;;;3.45;89.89;102022.00;4993922;28;20493;-46
2022/01/10 09:29:16;;;;;;;59.40;43.60;;;;;;;3.47;90.69;102038.53;4994179;28;20537;-45
2022/01/10 09:31:45;;;;;;;60.43;42.10;;;;;;;3.41;91.49;102039.84;4992747;28;20473;-50
2022/01/10 09:34:13;;;;;;;64.23;43.83;;;;;;;3.32;91.68;102049.31;4993881;28;20481;-46
2022/01/10 09:36:41;;;;;;;61.23;42.33;;;;;;;3.33;90.77;102052.78;4993866;28;20457;-49
2022/01/10 09:39:09;;;;;;;63.83;44.30;;;;;;;3.44;89.54;102063.34;4993753;28;20468;-48
2022/01/10 09:41:37;;;;;;;60.40;44.10;;;;;;;3.54;88.94;102066.97;4992884;28;20472;-46
2022/01/10 09:44:06;;;;;;;60.93;43.03;;;;;;;3.61;89.94;102062.06;4993621;28;20445;-50
2022/01/10 09:46:35;;;;;;;59.80;42.50;;;;;;;3.65;90.83;102064.31;4993792;28;20455;-46
2022/01/10 09:49:05;;;;;;;67.00;41.87;;;;;;;3.67;92.02;102075.59;4993675;28;20442;-47
2022/01/10 09:51:33;;;;;;;57.37;41.57;;;;;;;3.63;93.08;102079.44;4992796;28;20501;-45
2022/01/10 09:54:03;;;;;;;58.07;42.70;;;;;;;3.66;92.46;102089.75;4993581;28;20481;-50
2022/01/10 09:56:35;;;;;;;67.43;44.80;;;;;;;3.67;93.03;102093.22;4993490;28;20466;-48
2022/01/10 09:59:03;;;;;;;58.03;41.77;;;;;;;3.73;92.77;102087.47;4993564;28;20442;-46
2022/01/10 10:01:31;;;;;;;59.97;45.93;;;;;;;3.78;92.61;102098.50;4992659;28;20461;-48
2022/01/10 10:04:01;;;;;;;60.33;42.03;;;;;;;3.87;92.57;102098.63;4993197;28;20485;-45
2022/01/10 10:06:31;;;;;;;70.43;44.10;;;;;;;3.84;94.04;102103.31;4993253;28;20462;-47
2022/01/10 10:09:00;;;;;;;63.00;42.40;;;;;;;3.84;93.90;102103.31;4993438;28;20509;-45
2022/01/10 10:11:39;;;;;;;69.57;45.50;;;;;;;3.91;93.54;102107.16;4992484;28;20811;-50
2022/01/10 10:14:09;;;;;;;62.23;44.07;;;;;;;3.95;94.00;102113.84;4993208;28;20558;-45
2022/01/10 10:16:40;;;;;;;59.47;43.30;;;;;;;3.97;94.14;102111.09;4992902;28;20465;-47
2022/01/10 10:19:07;;;;;;;61.97;43.00;;;;;;;4.03;94.37;102118.53;4993348;28;20488;-45
2022/01/10 10:21:36;;;;;;;56.17;43.70;;;;;;;4.08;94.27;102121.66;4992384;28;20470;-48
2022/01/10 10:24:05;;;;;;;67.27;47.10;;;;;;;4.08;94.53;102125.13;4992914;28;21008;-46
2022/01/10 10:26:33;;;;;;;65.90;46.20;;;;;;;4.03;95.16;102131.72;4992936;28;20462;-48
2022/01/10 10:29:01;;;;;;;66.97;44.57;;;;;;;4.05;94.79;102138.56;4992769;28;20433;-46
2022/01/10 10:31:31;;;;;;;62.90;43.30;;;;;;;4.01;95.46;102147.69;4992335;28;20541;-47
2022/01/10 10:34:03;;;;;;;59.13;41.10;;;;;;;3.98;95.35;102152.34;4992941;28;20478;-46
2022/01/10 10:36:32;;;;;;;60.83;43.70;;;;;;;3.99;94.87;102157.53;4992932;28;20553;-48
2022/01/10 10:39:06;;;;;;;68.30;45.20;;;;;;;4.02;94.78;102159.06;4992800;28;20431;-49
2022/01/10 10:41:34;;;;;;;58.97;45.40;;;;;;;4.06;95.23;102165.81;4991911;28;20497;-46
2022/01/10 10:44:03;;;;;;;55.80;41.40;;;;;;;4.10;95.00;102169.88;4992700;28;20422;-48
2022/01/10 10:46:31;;;;;;;64.53;43.50;;;;;;;4.13;95.20;102167.00;4992445;28;20489;-47
2022/01/10 10:49:03;;;;;;;67.50;45.87;;;;;;;4.15;95.54;102170.38;4992542;28;20438;-47
2022/01/10 10:51:34;;;;;;;56.53;42.43;;;;;;;4.19;95.24;102174.44;4991904;28;20896;-45
2022/01/10 10:54:05;;;;;;;61.60;44.20;;;;;;;4.18;95.88;102180.69;4992353;28;20518;-48
2022/01/10 10:56:35;;;;;;;67.93;46.77;;;;;;;4.06;95.84;102181.66;4992693;28;20465;-45
2022/01/10 10:59:03;;;;;;;62.03;46.77;;;;;;;4.11;95.42;102176.84;4992545;28;20513;-45
2022/01/10 11:01:31;;;;;;;68.47;48.80;;;;;;;4.07;95.40;102181.50;4991831;28;20466;-47
2022/01/10 11:04:00;;;;;;;61.60;45.07;;;;;;;4.08;95.66;102177.06;4992314;28;20431;-50
2022/01/10 11:06:29;;;;;;;71.90;46.47;;;;;;;4.00;95.80;102179.50;4992232;28;20505;-48
2022/01/10 11:08:58;;;;;;;56.77;42.20;;;;;;;3.94;95.58;102187.88;4992492;28;20445;-47
2022/01/10 11:11:27;;;;;;;54.97;42.97;;;;;;;3.90;95.74;102195.19;4991706;28;20474;-45
2022/01/10 11:13:56;;;;;;;58.87;41.77;;;;;;;3.98;95.24;102199.84;4992402;28;20482;-47
2022/01/10 11:16:25;;;;;;;64.10;46.13;;;;;;;4.02;94.92;102206.59;4991735;28;21008;-49
2022/01/10 11:18:52;;;;;;;58.57;42.97;;;;;;;3.99;95.10;102207.69;4992299;28;20438;-49
2022/01/10 11:21:23;;;;;;;55.87;42.93;;;;;;;4.00;95.15;102213.78;4991636;28;20552;-46
2022/01/10 11:23:52;;;;;;;64.83;45.70;;;;;;;3.99;95.28;102212.94;4992388;28;20844;-50
2022/01/10 11:26:20;;;;;;;59.27;42.77;;;;;;;4.04;95.26;102220.50;4992286;28;20549;-49
2022/01/10 11:28:52;;;;;;;62.53;43.40;;;;;;;4.09;95.22;102219.19;4992289;28;20434;-48
2022/01/10 11:31:22;;;;;;;61.60;46.03;;;;;;;4.14;95.28;102229.41;4991471;28;20466;-47